Time;durP1;ratioP1;P1;durP2;ratioP2;P2;SDS_P1;SDS_P2;PMS_P1;PMS_P2;Temp;Humidity;BMP_temperature;BMP_pressure;BME280_temperature;BME280_humidity;BME280_pressure;Samples;Min_cycle;Max_cycle;Signal;HPM_P1;HPM_P2
2022/05/13 00:02:10;;;;;;;15.50;2.83;;;;;;;12.32;100.00;98946.94;4918205;29;20072;-87
2022/05/13 00:04:36;;;;;;;8.65;2.60;;;;;;;12.03;100.00;98936.72;4919628;29;20031;-89
2022/05/13 00:07:02;;;;;;;9.60;2.30;;;;;;;12.18;100.00;98933.00;4918258;29;20119;-86
2022/05/13 00:12:14;;;;;;;9.32;2.42;;;;;;;12.04;100.00;98927.81;4944241;28;20511;-87
2022/05/13 00:14:41;;;;;;;12.73;2.55;;;;;;;11.72;100.00;98932.88;4916950;29;20024;-87
2022/05/13 00:17:08;;;;;;;8.82;2.92;;;;;;;12.05;100.00;98924.16;4916873;29;20036;-88
2022/05/13 00:19:33;;;;;;;9.82;2.67;;;;;;;12.03;100.00;98926.19;4917756;29;20036;-87
2022/05/13 00:21:59;;;;;;;8.25;2.70;;;;;;;12.16;100.00;98914.00;4901893;29;20119;-87
2022/05/13 00:24:25;;;;;;;11.68;2.58;;;;;;;12.09;100.00;98920.09;4918669;29;20035;-85
2022/05/13 00:26:52;;;;;;;9.75;3.05;;;;;;;12.18;100.00;98909.31;4923973;29;20032;-89
2022/05/13 00:29:17;;;;;;;6.53;2.55;;;;;;;12.18;100.00;98928.56;4928421;29;20107;-87
2022/05/13 00:31:43;;;;;;;9.07;2.97;;;;;;;11.97;100.00;98916.44;4919387;29;20062;-88
2022/05/13 00:34:09;;;;;;;12.88;2.78;;;;;;;12.10;100.00;98920.91;4906438;29;20043;-90
2022/05/13 00:36:36;;;;;;;10.98;3.03;;;;;;;12.02;100.00;98919.31;4906417;29;20048;-88
2022/05/13 00:39:03;;;;;;;9.82;2.47;;;;;;;12.26;100.00;98906.47;4928193;29;20036;-87
2022/05/13 00:41:30;;;;;;;10.68;2.88;;;;;;;11.86;100.00;98915.25;4927665;29;20040;-87
2022/05/13 00:43:56;;;;;;;7.07;2.97;;;;;;;12.17;100.00;98926.94;4918249;29;20502;-86
2022/05/13 00:46:24;;;;;;;6.75;2.58;;;;;;;11.93;100.00;98905.56;4938000;29;20055;-86
2022/05/13 00:48:50;;;;;;;11.20;3.10;;;;;;;12.20;100.00;98912.59;4924259;29;20570;-87
2022/05/13 00:51:20;;;;;;;8.50;2.50;;;;;;;12.26;100.00;98919.63;4938770;29;20035;-86
2022/05/13 00:53:47;;;;;;;7.43;2.67;;;;;;;12.04;100.00;98912.03;4916807;29;20387;-86
2022/05/13 00:56:13;;;;;;;4.00;2.40;;;;;;;12.40;100.00;98921.22;4916281;29;20487;-87
2022/05/13 00:58:43;;;;;;;7.35;2.88;;;;;;;12.39;100.00;98913.50;4900753;29;20479;-88
2022/05/13 01:01:09;;;;;;;7.68;2.63;;;;;;;12.33;100.00;98898.56;4916428;29;20048;-86
2022/05/13 01:03:37;;;;;;;10.10;2.75;;;;;;;12.36;100.00;98924.47;4942619;28;20048;-88
2022/05/13 01:06:06;;;;;;;8.55;2.60;;;;;;;12.49;100.00;98934.13;4916679;29;20036;-87
2022/05/13 01:08:32;;;;;;;9.73;2.38;;;;;;;12.43;100.00;98910.25;4935126;29;20036;-88
2022/05/13 01:11:01;;;;;;;7.32;2.67;;;;;;;12.31;100.00;98900.59;4899865;29;20036;-85
2022/05/13 01:13:29;;;;;;;7.60;2.55;;;;;;;12.21;100.00;98901.84;4921424;29;20036;-88
2022/05/13 01:15:56;;;;;;;9.32;2.80;;;;;;;12.23;100.00;98910.31;4900531;29;20088;-86
2022/05/13 01:18:34;;;;;;;12.55;4.13;;;;;;;12.37;100.00;98911.06;4900138;29;20036;-86
2022/05/13 01:21:01;;;;;;;13.80;3.53;;;;;;;12.01;100.00;98915.06;4937536;28;20043;-86
2022/05/13 01:23:30;;;;;;;12.43;2.90;;;;;;;11.95;100.00;98911.41;4915303;29;20032;-87
2022/05/13 01:25:59;;;;;;;11.93;3.13;;;;;;;12.02;100.00;98916.69;4899960;29;20028;-86
2022/05/13 01:28:34;;;;;;;12.95;3.88;;;;;;;12.22;100.00;98921.06;4916407;29;20036;-87
2022/05/13 01:31:03;;;;;;;11.20;2.58;;;;;;;12.08;100.00;98920.28;4916928;29;20035;-87
2022/05/13 01:33:29;;;;;;;8.15;2.90;;;;;;;12.06;100.00;98917.88;4915714;29;20027;-90
2022/05/13 01:35:58;;;;;;;10.52;2.97;;;;;;;12.47;100.00;98925.63;4918640;29;20115;-87
2022/05/13 01:38:27;;;;;;;9.77;2.90;;;;;;;12.51;100.00;98911.84;4923540;29;20040;-89
2022/05/13 01:40:53;;;;;;;9.55;3.08;;;;;;;12.08;100.00;98923.75;4920915;29;20475;-89
2022/05/13 01:43:19;;;;;;;9.32;3.00;;;;;;;12.48;100.00;98929.88;4905067;29;20037;-88
2022/05/13 01:45:45;;;;;;;9.68;3.25;;;;;;;12.14;100.00;98928.16;4901679;29;20497;-88
2022/05/13 01:48:11;;;;;;;12.18;3.05;;;;;;;12.24;100.00;98932.19;4926114;29;20032;-86
2022/05/13 01:50:37;;;;;;;14.20;3.80;;;;;;;12.35;100.00;98921.00;4917298;29;20050;-87
2022/05/13 01:53:04;;;;;;;11.15;3.58;;;;;;;12.27;100.00;98923.88;4901743;29;20071;-87
2022/05/13 01:55:29;;;;;;;17.65;3.45;;;;;;;12.16;100.00;98924.53;4917367;29;20119;-86
2022/05/13 01:57:55;;;;;;;13.18;3.05;;;;;;;12.33;100.00;98930.94;4917472;29;20510;-85
2022/05/13 02:00:22;;;;;;;10.85;3.17;;;;;;;12.23;100.00;98939.28;4921791;29;20032;-87
2022/05/13 02:05:32;;;;;;;12.07;3.35;;;;;;;12.54;100.00;98943.00;4920575;29;20040;-87
2022/05/13 02:07:58;;;;;;;10.95;3.85;;;;;;;12.37;100.00;98932.13;4901331;29;20120;-90
2022/05/13 02:10:23;;;;;;;18.48;3.25;;;;;;;11.88;100.00;98936.09;4924784;29;20060;-88
2022/05/13 02:12:50;;;;;;;10.82;2.83;;;;;;;12.41;100.00;98932.53;4916653;29;20032;-87
2022/05/13 02:15:15;;;;;;;9.73;3.60;;;;;;;12.23;100.00;98923.47;4915398;29;20431;-88
2022/05/13 02:17:41;;;;;;;13.32;3.17;;;;;;;12.27;100.00;98937.03;4916090;29;20032;-87
2022/05/13 02:20:08;;;;;;;9.10;3.35;;;;;;;12.40;100.00;98931.72;4899481;29;20044;-88
2022/05/13 02:22:34;;;;;;;7.82;2.70;;;;;;;12.60;100.00;98936.09;4916124;29;20036;-87
2022/05/13 02:25:00;;;;;;;9.63;2.80;;;;;;;12.58;100.00;98935.50;4915083;29;20075;-87
2022/05/13 02:27:27;;;;;;;8.75;2.85;;;;;;;12.47;100.00;98925.63;4921156;29;20326;-86
2022/05/13 02:29:53;;;;;;;17.08;3.67;;;;;;;12.51;100.00;98924.19;4939372;29;20050;-88
2022/05/13 02:32:20;;;;;;;12.43;3.50;;;;;;;12.61;100.00;98926.38;4915969;29;20032;-88
2022/05/13 02:34:46;;;;;;;9.77;2.95;;;;;;;12.76;100.00;98933.97;4929839;29;20029;-88
2022/05/13 02:37:12;;;;;;;9.52;3.17;;;;;;;12.37;100.00;98932.13;4922505;29;20049;-90
2022/05/13 02:39:38;;;;;;;9.77;2.97;;;;;;;12.10;100.00;98931.44;4917654;29;20068;-90
2022/05/13 02:42:04;;;;;;;9.93;3.15;;;;;;;12.26;100.00;98930.16;4917175;29;20032;-86
2022/05/13 02:44:30;;;;;;;13.23;3.40;;;;;;;12.36;100.00;98934.97;4920885;29;20035;-90
2022/05/13 02:46:56;;;;;;;15.02;3.53;;;;;;;12.62;100.00;98944.59;4909943;29;20035;-88
2022/05/13 02:49:22;;;;;;;9.50;3.25;;;;;;;12.36;100.00;98925.25;4908465;29;20064;-91
2022/05/13 02:51:48;;;;;;;8.02;2.83;;;;;;;12.57;100.00;98928.59;4899203;29;20032;-89
2022/05/13 02:54:15;;;;;;;8.68;3.33;;;;;;;12.37;100.00;98921.59;4899140;29;20060;-86
2022/05/13 02:56:40;;;;;;;12.43;3.25;;;;;;;12.38;100.00;98936.41;4898797;29;20059;-87
2022/05/13 02:59:06;;;;;;;18.45;4.07;;;;;;;12.49;100.00;98942.84;4903863;29;20040;-86
2022/05/13 03:01:32;;;;;;;12.55;3.30;;;;;;;12.16;100.00;98945.56;4899311;29;20055;-87
2022/05/13 03:03:58;;;;;;;7.35;3.20;;;;;;;12.20;100.00;98925.75;4894273;29;20542;-89
2022/05/13 03:06:24;;;;;;;11.32;3.63;;;;;;;12.07;100.00;98932.66;4913606;29;20387;-88
2022/05/13 03:08:51;;;;;;;10.02;3.15;;;;;;;12.35;100.00;98922.84;4913741;29;20483;-88
2022/05/13 03:11:20;;;;;;;13.27;3.90;;;;;;;12.17;100.00;98932.22;4918234;29;20066;-88
2022/05/13 03:13:51;;;;;;;10.07;3.63;;;;;;;12.42;100.00;98924.44;4914977;29;20127;-88
2022/05/13 03:16:21;;;;;;;9.18;3.35;;;;;;;11.95;100.00;98940.34;4916447;29;20040;-89
2022/05/13 03:18:50;;;;;;;11.13;3.40;;;;;;;12.12;100.00;98932.03;4914296;29;20032;-88
2022/05/13 03:21:16;;;;;;;10.25;3.22;;;;;;;12.37;100.00;98918.97;4915444;29;20036;-88
2022/05/13 03:23:42;;;;;;;12.98;3.70;;;;;;;12.22;100.00;98923.72;4914185;29;20099;-87
2022/05/13 03:26:08;;;;;;;6.10;2.65;;;;;;;12.13;100.00;98931.03;4915154;29;20028;-89
2022/05/13 03:28:34;;;;;;;10.60;4.07;;;;;;;12.25;100.00;98929.34;4914987;29;20478;-87
2022/05/13 03:31:00;;;;;;;11.68;3.20;;;;;;;11.85;100.00;98934.69;4914578;29;20175;-87
2022/05/13 03:33:26;;;;;;;18.45;3.50;;;;;;;12.13;100.00;98926.56;4915297;29;20130;-88
2022/05/13 03:35:52;;;;;;;11.98;3.50;;;;;;;12.38;100.00;98935.59;4914099;29;20123;-87
2022/05/13 03:38:18;;;;;;;12.82;4.03;;;;;;;12.26;100.00;98930.97;4922001;29;20096;-87
2022/05/13 03:40:46;;;;;;;12.68;3.85;;;;;;;12.22;100.00;98942.13;4890037;29;20033;-89
2022/05/13 03:43:12;;;;;;;16.85;3.60;;;;;;;11.89;100.00;98924.56;4917419;29;20032;-91
2022/05/13 03:45:38;;;;;;;11.35;3.72;;;;;;;11.94;100.00;98935.28;4918845;29;20055;-87
2022/05/13 03:48:05;;;;;;;15.85;4.10;;;;;;;12.33;100.00;98930.94;4918137;29;20118;-90
2022/05/13 03:50:32;;;;;;;17.05;4.43;;;;;;;12.14;100.00;98936.06;4932681;29;20047;-89
2022/05/13 03:53:02;;;;;;;17.65;3.80;;;;;;;12.20;100.00;98938.91;4918644;29;20039;-88
2022/05/13 03:55:31;;;;;;;12.63;3.50;;;;;;;12.18;100.00;98933.00;4902621;29;20083;-89
2022/05/13 03:57:57;;;;;;;11.98;3.70;;;;;;;12.11;100.00;98946.22;4919441;29;20040;-88
2022/05/13 04:00:23;;;;;;;9.55;3.55;;;;;;;12.39;100.00;98940.66;4902999;29;20060;-89
2022/05/13 04:02:49;;;;;;;10.90;4.00;;;;;;;12.19;100.00;98935.44;4918666;29;20479;-89
2022/05/13 04:10:43;;;;;;;10.32;3.50;;;;;;;12.16;100.00;98945.56;4919839;29;20379;-88
2022/05/13 04:16:06;;;;;;;8.68;3.25;;;;;;;12.32;100.00;98950.38;4918497;29;20029;-89
2022/05/13 04:18:53;;;;;;;20.10;3.95;;;;;;;12.47;100.00;98941.41;4916770;29;20038;-87
2022/05/13 04:21:23;;;;;;;15.40;4.15;;;;;;;12.48;100.00;98935.13;4917080;29;20106;-85
2022/05/13 04:23:51;;;;;;;15.02;4.10;;;;;;;12.00;100.00;98921.31;4917782;29;20051;-85
2022/05/13 04:26:17;;;;;;;12.52;4.15;;;;;;;12.10;100.00;98913.81;4902507;29;20455;-88
2022/05/13 04:28:45;;;;;;;19.33;3.83;;;;;;;12.34;100.00;98911.50;4918866;29;20032;-88
2022/05/13 04:31:12;;;;;;;13.20;3.70;;;;;;;11.94;100.00;98916.88;4917965;29;20074;-86
2022/05/13 04:33:38;;;;;;;17.52;4.15;;;;;;;11.99;100.00;98928.38;4901674;29;20384;-88
2022/05/13 04:36:05;;;;;;;12.60;3.80;;;;;;;11.91;100.00;98927.81;4917728;29;20024;-86
2022/05/13 04:38:32;;;;;;;13.90;3.83;;;;;;;12.04;100.00;98919.09;4920528;29;20072;-86
2022/05/13 04:42:49;;;;;;;16.50;4.68;;;;;;;12.16;100.00;98930.59;4918906;29;20032;-88
2022/05/13 04:43:44;;;;;;;14.40;4.03;;;;;;;12.24;100.00;98932.19;4917247;29;20036;-87
2022/05/13 04:46:10;;;;;;;14.00;4.18;;;;;;;11.79;100.00;98935.50;4915683;29;20035;-87
2022/05/13 04:48:38;;;;;;;17.38;5.72;;;;;;;12.05;100.00;98939.94;4892993;29;20119;-85
2022/05/13 04:51:04;;;;;;;15.93;3.85;;;;;;;12.08;100.00;98929.00;4917806;29;20542;-88
2022/05/13 04:53:32;;;;;;;13.73;4.22;;;;;;;11.98;100.00;98939.09;4903179;29;20507;-89
2022/05/13 04:56:00;;;;;;;22.90;4.32;;;;;;;11.73;100.00;98942.38;4919964;29;20031;-88
2022/05/13 04:58:27;;;;;;;15.52;4.15;;;;;;;11.81;100.00;98941.38;4910731;29;20049;-89
2022/05/13 05:00:55;;;;;;;16.23;4.47;;;;;;;11.55;100.00;98956.97;4932707;29;20083;-89
2022/05/13 05:03:23;;;;;;;15.18;4.55;;;;;;;11.84;100.00;98949.66;4922920;29;20067;-88
2022/05/13 05:05:48;;;;;;;17.00;4.63;;;;;;;11.51;100.00;98950.50;4901392;29;20036;-88
2022/05/13 05:08:16;;;;;;;17.98;4.75;;;;;;;11.98;100.00;98957.50;4912265;29;20043;-89
2022/05/13 05:10:44;;;;;;;11.27;3.60;;;;;;;11.95;100.00;98956.13;4902450;29;20032;-89
2022/05/13 05:13:16;;;;;;;13.55;4.03;;;;;;;12.03;100.00;98952.50;4932483;29;20123;-91
2022/05/13 05:15:42;;;;;;;20.40;4.72;;;;;;;11.82;100.00;98956.13;4936718;29;20032;-89
2022/05/13 05:18:08;;;;;;;13.55;4.03;;;;;;;11.73;100.00;98952.91;4930229;29;20047;-90
2022/05/13 05:20:34;;;;;;;13.88;4.00;;;;;;;11.76;100.00;98952.50;4934724;28;20036;-89
2022/05/13 05:23:00;;;;;;;16.05;4.68;;;;;;;12.00;100.00;98966.03;4914289;29;20035;-90
2022/05/13 05:25:51;;;;;;;14.88;4.82;;;;;;;11.91;100.00;98952.28;4898475;29;20028;-90
2022/05/13 05:28:20;;;;;;;12.18;4.40;;;;;;;11.65;100.00;98940.78;4901796;29;20036;-89
2022/05/13 05:30:50;;;;;;;19.20;4.00;;;;;;;11.69;100.00;98970.94;4925238;29;20037;-88
2022/05/13 05:33:21;;;;;;;11.65;4.10;;;;;;;11.64;100.00;98962.03;4924322;29;20036;-90
2022/05/13 05:35:52;;;;;;;23.73;4.30;;;;;;;11.49;100.00;98942.00;4919856;29;20067;-88
2022/05/13 05:38:18;;;;;;;16.15;4.53;;;;;;;11.71;100.00;98933.91;4898767;29;20088;-87
2022/05/13 05:40:43;;;;;;;15.85;3.92;;;;;;;11.56;100.00;98958.56;4915847;29;20032;-90
2022/05/13 05:43:15;;;;;;;13.27;3.95;;;;;;;11.66;100.00;98962.63;4917474;29;20419;-90
2022/05/13 05:45:42;;;;;;;16.90;3.92;;;;;;;11.85;100.00;98971.50;4913688;29;20023;-89
2022/05/13 05:48:10;;;;;;;22.83;4.07;;;;;;;12.24;100.00;98990.09;4900158;29;20383;-89
2022/05/13 05:50:36;;;;;;;21.52;4.15;;;;;;;11.82;100.00;98987.69;4899971;29;20083;-89
2022/05/13 05:53:03;;;;;;;19.17;4.10;;;;;;;12.11;100.00;98994.34;4923962;29;20024;-89
2022/05/13 05:58:20;;;;;;;15.25;4.13;;;;;;;12.12;100.00;98974.94;4924107;29;20036;-89
2022/05/13 06:00:49;;;;;;;17.35;4.32;;;;;;;12.19;100.00;98976.75;4912507;29;20040;-90
2022/05/13 06:03:16;;;;;;;12.90;4.68;;;;;;;12.32;100.00;98981.16;4906839;29;20055;-90
2022/05/13 06:05:44;;;;;;;19.38;4.90;;;;;;;12.08;100.00;98976.34;4905823;29;20040;-90
2022/05/13 06:08:10;;;;;;;17.95;4.25;;;;;;;12.10;100.00;98994.59;4908016;29;20032;-89
2022/05/13 06:10:36;;;;;;;17.60;4.68;;;;;;;12.14;100.00;98980.78;4908349;29;20071;-90
2022/05/13 06:13:05;;;;;;;15.20;4.80;;;;;;;12.50;100.00;99001.56;4908283;29;20052;-91
2022/05/13 06:15:31;;;;;;;19.83;4.22;;;;;;;12.59;100.00;98984.50;4905211;29;20043;-89
2022/05/13 06:17:57;;;;;;;17.70;5.22;;;;;;;12.37;100.00;99005.81;4908498;29;20364;-90
2022/05/13 06:20:29;;;;;;;17.83;4.50;;;;;;;12.22;100.00;98984.22;4914902;29;20091;-90
2022/05/13 06:22:56;;;;;;;17.42;4.68;;;;;;;11.82;100.00;98975.38;4911472;29;20036;-89
2022/05/13 06:25:34;;;;;;;14.45;4.30;;;;;;;12.16;100.00;98983.22;4913887;29;20036;-89
2022/05/13 06:28:01;;;;;;;18.90;5.10;;;;;;;11.99;100.00;98962.59;4898053;29;20048;-90
2022/05/13 06:30:31;;;;;;;12.65;4.47;;;;;;;11.85;100.00;98950.47;4911963;29;20067;-89
2022/05/13 06:32:58;;;;;;;15.10;4.00;;;;;;;11.65;100.00;98955.75;4910072;29;20099;-90
2022/05/13 06:35:26;;;;;;;18.58;5.10;;;;;;;12.10;100.00;98957.75;4904137;29;20139;-89
2022/05/13 06:37:52;;;;;;;14.00;4.60;;;;;;;11.68;100.00;98950.09;4902710;29;20043;-88
2022/05/13 06:40:19;;;;;;;16.05;4.35;;;;;;;11.96;100.00;98935.88;4903903;29;20068;-90
2022/05/13 06:42:45;;;;;;;18.80;5.07;;;;;;;11.90;100.00;98940.16;4916331;29;20517;-88
2022/05/13 06:45:11;;;;;;;19.45;4.40;;;;;;;11.57;100.00;98922.59;4901988;29;20028;-87
2022/05/13 06:47:37;;;;;;;23.45;5.13;;;;;;;11.99;100.00;98946.81;4901141;29;20043;-87
2022/05/13 06:50:06;;;;;;;19.55;4.50;;;;;;;12.04;100.00;98943.59;4916227;29;20034;-88
2022/05/13 06:52:32;;;;;;;15.30;4.55;;;;;;;11.92;100.00;98922.34;4901084;29;20125;-87
2022/05/13 06:54:58;;;;;;;23.27;4.60;;;;;;;12.18;100.00;98938.28;4923164;29;20111;-89
2022/05/13 06:57:24;;;;;;;20.48;5.07;;;;;;;11.98;100.00;98947.00;4915888;29;20503;-87
2022/05/13 06:59:50;;;;;;;12.60;4.22;;;;;;;12.38;100.00;98946.09;4926049;29;20115;-87
2022/05/13 07:02:17;;;;;;;18.75;4.30;;;;;;;12.50;100.00;98946.25;4917292;29;20068;-89
2022/05/13 07:04:44;;;;;;;22.55;5.65;;;;;;;12.42;100.00;98958.66;4920840;29;20036;-90
2022/05/13 07:07:10;;;;;;;14.88;4.78;;;;;;;12.62;100.00;98978.81;4944223;28;20052;-88
2022/05/13 07:09:37;;;;;;;14.38;4.70;;;;;;;12.81;100.00;98952.59;4902805;29;20064;-88
2022/05/13 07:12:03;;;;;;;16.38;4.72;;;;;;;12.99;100.00;98949.25;4915967;29;20036;-90
2022/05/13 07:14:29;;;;;;;13.98;4.53;;;;;;;12.82;100.00;98965.53;4937056;28;20032;-89
2022/05/13 07:16:55;;;;;;;16.48;4.53;;;;;;;12.70;100.00;98983.84;4920374;29;20439;-87
2022/05/13 07:19:21;;;;;;;15.82;4.78;;;;;;;13.17;100.00;98979.34;4919225;29;20032;-89
2022/05/13 07:21:47;;;;;;;18.75;4.88;;;;;;;13.28;100.00;98979.47;4918682;29;20398;-88
2022/05/13 07:24:12;;;;;;;17.08;5.07;;;;;;;13.20;100.00;98981.53;4927883;29;20363;-90
2022/05/13 07:26:38;;;;;;;19.88;5.38;;;;;;;13.10;100.00;98989.91;4920422;29;20043;-87
2022/05/13 07:29:05;;;;;;;15.82;4.22;;;;;;;13.17;100.00;98995.16;4919102;29;20035;-89
2022/05/13 07:31:31;;;;;;;21.23;4.65;;;;;;;13.21;100.00;98978.72;4917672;29;20040;-87
2022/05/13 07:33:57;;;;;;;15.90;4.55;;;;;;;13.29;100.00;98975.81;4916914;29;20036;-88
2022/05/13 07:36:22;;;;;;;13.52;4.45;;;;;;;13.52;100.00;99000.81;4917768;29;20051;-87
2022/05/13 07:41:32;;;;;;;19.30;5.50;;;;;;;13.39;100.00;98979.81;4917491;29;20043;-88
2022/05/13 07:44:01;;;;;;;21.90;4.85;;;;;;;13.70;100.00;98983.44;4916692;29;20032;-86
2022/05/13 07:46:27;;;;;;;20.25;4.78;;;;;;;13.36;100.00;98977.56;4941447;28;20051;-88
2022/05/13 07:48:52;;;;;;;17.92;5.43;;;;;;;13.47;100.00;98955.84;4916794;29;20036;-88
2022/05/13 07:51:18;;;;;;;18.20;3.92;;;;;;;13.45;100.00;98978.97;4916572;29;20036;-88
2022/05/13 07:53:44;;;;;;;24.60;4.97;;;;;;;13.09;100.00;98967.22;4916396;29;20043;-88
2022/05/13 07:56:10;;;;;;;18.08;5.05;;;;;;;13.33;100.00;98986.75;4917573;29;20029;-88
2022/05/13 07:58:36;;;;;;;15.10;4.97;;;;;;;13.28;100.00;98982.09;4916837;29;20127;-88
2022/05/13 08:01:03;;;;;;;21.13;5.10;;;;;;;13.29;100.00;98961.84;4916700;29;20175;-89
2022/05/13 08:03:30;;;;;;;15.45;4.47;;;;;;;13.53;100.00;98993.72;4918408;29;20178;-87
2022/05/13 08:06:02;;;;;;;14.13;4.00;;;;;;;14.31;100.00;99002.13;4937400;29;20051;-87
2022/05/13 08:08:40;;;;;;;23.15;4.32;;;;;;;13.70;100.00;98992.16;4919504;29;20043;-86
2022/05/13 08:11:11;;;;;;;17.92;4.57;;;;;;;13.38;100.00;98999.28;4934049;29;20167;-86
2022/05/13 08:13:38;;;;;;;14.93;4.65;;;;;;;13.79;100.00;98987.41;4919403;29;20064;-87
2022/05/13 08:16:10;;;;;;;20.42;4.85;;;;;;;13.90;100.00;99001.72;4919745;29;20020;-86
2022/05/13 08:18:37;;;;;;;16.50;4.55;;;;;;;13.60;100.00;98991.81;4917896;29;20032;-87
2022/05/13 08:21:03;;;;;;;21.27;5.38;;;;;;;13.52;100.00;98995.53;4919186;29;20036;-85
2022/05/13 08:23:29;;;;;;;18.05;4.30;;;;;;;14.10;100.00;98985.69;4919226;29;20043;-86
2022/05/13 08:25:54;;;;;;;14.23;4.47;;;;;;;14.11;100.00;98989.16;4902050;29;20036;-86
2022/05/13 08:28:22;;;;;;;14.63;4.05;;;;;;;13.88;100.00;98981.84;4917299;29;20047;-84
2022/05/13 08:30:49;;;;;;;18.92;4.72;;;;;;;14.13;100.00;98974.69;4913184;29;20037;-84
2022/05/13 08:33:15;;;;;;;21.00;5.38;;;;;;;14.05;100.00;98982.91;4915879;29;20122;-86
2022/05/13 08:35:46;;;;;;;17.15;4.45;;;;;;;14.08;100.00;98977.19;4918689;29;20040;-86
2022/05/13 08:38:16;;;;;;;13.95;4.18;;;;;;;14.49;100.00;98985.50;4920215;29;20055;-86
2022/05/13 08:40:52;;;;;;;15.23;4.43;;;;;;;15.18;100.00;98994.16;4925575;29;20042;-85
2022/05/13 08:43:25;;;;;;;16.55;4.80;;;;;;;14.67;100.00;98989.94;4907168;29;20040;-87
2022/05/13 08:45:55;;;;;;;20.80;4.18;;;;;;;14.23;100.00;98983.94;4920963;29;20028;-87
2022/05/13 08:48:43;;;;;;;18.27;4.88;;;;;;;14.51;100.00;98999.28;4946074;29;20033;-86
2022/05/13 08:51:30;;;;;;;16.05;5.15;;;;;;;14.39;100.00;98993.94;4923567;29;20076;-86
2022/05/13 08:54:15;;;;;;;22.40;5.10;;;;;;;14.98;100.00;98974.94;4910205;29;20390;-87
2022/05/13 08:56:47;;;;;;;17.45;4.82;;;;;;;15.25;100.00;98994.91;4914622;29;20048;-88
2022/05/13 08:59:25;;;;;;;17.15;4.93;;;;;;;15.43;100.00;98994.00;4915116;29;20040;-87
2022/05/13 09:02:00;;;;;;;21.00;4.68;;;;;;;15.23;100.00;99013.63;4906466;29;20062;-87
2022/05/13 09:04:26;;;;;;;13.15;4.18;;;;;;;15.92;99.00;99014.22;4920371;29;20032;-87
2022/05/13 09:06:55;;;;;;;18.60;4.57;;;;;;;15.82;98.92;99015.56;4916227;29;20039;-87
2022/05/13 09:09:21;;;;;;;15.15;4.97;;;;;;;15.68;99.65;99017.63;4915606;29;20033;-87
2022/05/13 09:11:59;;;;;;;16.50;3.95;;;;;;;16.27;99.20;99016.03;4915431;29;20047;-89
2022/05/13 09:14:52;;;;;;;17.77;4.80;;;;;;;15.85;97.42;99001.84;4898823;29;20035;-87
2022/05/13 09:17:41;;;;;;;13.70;4.63;;;;;;;16.08;97.73;98996.81;4916003;29;20044;-87
2022/05/13 09:20:20;;;;;;;16.42;4.93;;;;;;;15.75;97.68;99006.94;4915675;29;20460;-86
2022/05/13 09:22:58;;;;;;;17.10;5.60;;;;;;;16.11;97.01;99036.91;4915225;29;20047;-86
2022/05/13 09:25:43;;;;;;;16.98;4.22;;;;;;;16.74;96.51;99012.47;4897436;29;20487;-87
2022/05/13 09:28:14;;;;;;;20.30;5.00;;;;;;;17.03;94.61;99007.22;4913026;29;20036;-88
2022/05/13 09:30:50;;;;;;;20.65;5.32;;;;;;;16.04;96.15;99003.63;4899172;29;20119;-86
2022/05/13 09:33:26;;;;;;;17.35;5.25;;;;;;;16.61;95.35;99000.28;4914623;29;20039;-86
2022/05/13 09:35:55;;;;;;;19.95;5.38;;;;;;;16.31;96.14;99005.78;4915665;29;20107;-87
2022/05/13 09:38:26;;;;;;;17.13;5.53;;;;;;;16.85;94.19;99010.81;4913879;29;20054;-87
2022/05/13 09:41:05;;;;;;;18.52;5.15;;;;;;;17.85;93.03;99010.38;4892477;29;20039;-87
2022/05/13 09:43:41;;;;;;;19.70;5.35;;;;;;;17.49;92.48;99027.59;4897279;29;20032;-87
2022/05/13 09:46:09;;;;;;;22.63;6.22;;;;;;;16.85;92.89;99024.06;4934201;28;20067;-87
2022/05/13 09:48:50;;;;;;;16.10;5.38;;;;;;;17.40;92.54;99024.53;4938477;29;20054;-87
2022/05/13 09:51:21;;;;;;;15.75;5.05;;;;;;;17.22;93.20;99021.06;4913155;29;20056;-87
2022/05/13 09:54:07;;;;;;;16.85;5.38;;;;;;;17.46;93.37;99023.56;4914251;29;20470;-86
2022/05/13 09:56:43;;;;;;;19.55;5.10;;;;;;;17.81;91.14;99027.84;4915503;29;20068;-87
2022/05/13 09:59:20;;;;;;;19.75;5.20;;;;;;;17.17;93.41;99034.22;4935096;29;20035;-87
2022/05/13 10:01:46;;;;;;;18.10;5.32;;;;;;;17.39;93.45;99047.63;4912811;29;20439;-88
2022/05/13 10:04:19;;;;;;;16.63;5.93;;;;;;;17.13;93.14;99051.66;4917765;29;20067;-87
2022/05/13 10:06:44;;;;;;;14.80;5.30;;;;;;;17.38;92.22;99034.59;4913491;29;20475;-90
2022/05/13 10:15:14;;;;;;;17.17;4.88;;;;;;;17.47;91.94;99046.41;4915041;29;20060;-89
2022/05/13 10:17:47;;;;;;;20.15;5.55;;;;;;;17.68;91.12;99058.16;4937436;29;20525;-87
2022/05/13 10:20:22;;;;;;;;;;;;;;;16.40;91.92;99063.47;4923332;29;20087;-86
2022/05/13 10:22:56;;;;;;;19.10;5.38;;;;;;;17.12;90.45;99056.16;4913896;29;19949;-88
2022/05/13 10:25:31;;;;;;;16.60;4.50;;;;;;;17.54;90.75;99076.25;4935157;29;20035;-88
2022/05/13 10:28:09;;;;;;;20.58;5.93;;;;;;;17.37;91.11;99043.59;4913418;29;20043;-89
2022/05/13 10:30:47;;;;;;;13.93;4.82;;;;;;;17.39;90.39;99060.06;4914294;29;20039;-87
2022/05/13 10:33:41;;;;;;;33.95;6.25;;;;;;;17.56;90.04;99071.50;4920441;29;20036;-87
2022/05/13 10:36:17;;;;;;;19.58;5.40;;;;;;;17.58;90.20;99063.28;4914363;29;20032;-88
2022/05/13 10:38:51;;;;;;;20.83;5.13;;;;;;;18.44;89.47;99065.91;4914825;29;20035;-88
2022/05/13 10:41:48;;;;;;;14.18;4.63;;;;;;;17.79;90.21;99050.38;4912834;29;20048;-87
2022/05/13 10:44:33;;;;;;;14.98;4.70;;;;;;;18.51;87.93;99062.03;4911571;29;20040;-87
2022/05/13 10:47:05;;;;;;;15.13;4.97;;;;;;;18.52;87.85;99068.16;4920847;29;20050;-88
2022/05/13 10:49:48;;;;;;;10.27;4.85;;;;;;;18.27;87.44;99058.78;4912846;29;20032;-88
2022/05/13 10:52:46;;;;;;;16.27;6.10;;;;;;;18.39;88.50;99064.03;4921466;29;20109;-87
2022/05/13 10:55:23;;;;;;;18.27;5.25;;;;;;;18.87;85.66;99058.19;4919567;29;20554;-87
2022/05/13 10:58:16;;;;;;;15.75;5.82;;;;;;;18.52;84.45;99062.84;4906678;29;20036;-92
2022/05/13 11:00:48;;;;;;;;;;;;;;;18.11;85.12;99073.72;4921499;29;20052;-89
2022/05/13 11:03:32;;;;;;;14.75;5.75;;;;;;;17.48;86.43;99066.59;4923035;29;20385;-89
2022/05/13 11:06:00;;;;;;;;;;;;;;;18.28;87.97;99068.41;4943071;29;20522;-89
2022/05/13 11:08:35;;;;;;;22.33;5.57;;;;;;;18.82;86.45;99074.91;4944546;29;19922;-89
2022/05/13 11:11:27;;;;;;;18.35;6.00;;;;;;;18.00;85.02;99067.41;4941883;28;20044;-89
2022/05/13 11:14:15;;;;;;;14.25;5.20;;;;;;;17.96;85.17;99076.91;4922155;29;20028;-89
2022/05/13 11:16:43;;;;;;;12.15;5.20;;;;;;;18.86;85.94;99070.69;4923019;29;20032;-88
2022/05/13 11:19:31;;;;;;;21.67;5.47;;;;;;;19.25;84.70;99054.63;4921565;29;20028;-86
2022/05/13 11:22:02;;;;;;;14.65;4.93;;;;;;;19.36;82.35;99060.06;4928301;29;20024;-87
2022/05/13 11:27:46;;;;;;;15.85;5.38;;;;;;;19.32;81.85;99054.44;4918609;29;20093;-87
2022/05/13 11:30:18;;;;;;;18.35;5.63;;;;;;;19.27;81.23;99052.53;4919538;29;20504;-86
2022/05/13 11:32:54;;;;;;;11.52;4.85;;;;;;;19.31;83.20;99052.03;4919155;29;20040;-85
2022/05/13 11:35:22;;;;;;;22.70;5.57;;;;;;;19.43;81.14;99060.66;4919762;29;20038;-89
2022/05/13 11:37:54;;;;;;;14.55;5.38;;;;;;;18.85;80.21;99050.47;4920628;29;20035;-87
2022/05/13 11:40:30;;;;;;;14.35;5.25;;;;;;;19.09;80.52;99044.91;4920286;29;20051;-87
2022/05/13 11:43:19;;;;;;;11.77;5.18;;;;;;;19.60;79.59;99051.75;4918333;29;20036;-89
2022/05/13 11:46:06;;;;;;;13.13;4.80;;;;;;;19.01;80.30;99048.00;4918302;29;20454;-88
2022/05/13 11:48:41;;;;;;;16.75;4.95;;;;;;;19.13;80.99;99048.69;4909594;29;20410;-88
2022/05/13 11:51:19;;;;;;;10.10;5.82;;;;;;;18.59;80.19;99036.88;4920187;29;20091;-87
2022/05/13 11:53:52;;;;;;;22.10;5.03;;;;;;;18.46;80.36;99040.72;4919405;29;20028;-86
2022/05/13 11:56:25;;;;;;;14.90;5.20;;;;;;;19.00;80.57;99030.44;4918770;29;20127;-87
2022/05/13 11:59:11;;;;;;;16.08;4.68;;;;;;;18.38;80.88;99035.84;4920160;29;20044;-86
2022/05/13 12:01:43;;;;;;;13.55;5.72;;;;;;;18.35;81.43;99042.44;4917802;29;20060;-89
2022/05/13 12:04:12;;;;;;;14.93;5.32;;;;;;;17.97;82.38;99033.38;4939423;28;20036;-88